Weather History for Flag Island, MN

Change the Weather History Date:

Friday, September 20, 2013

  Actual Average Record
Temperature  
Mean Temperature 50 °F -  
Max Temperature 53 °F 58 °F 71 °F (2004)
Min Temperature 48 °F 45 °F 37 °F (1999)
Degree Days  
Heating Degree Days 14    
Moisture  
Dew Point 45 °F    
Average Humidity 84    
Maximum Humidity 93    
Minimum Humidity 71    
Precipitation  
Precipitation 0.00 in - - ()
Sea Level Pressure  
Sea Level Pressure 29.84 in    
Wind  
Wind Speed 18 mph (NW)    
Max Wind Speed 26 mph    
Max Gust Speed 32 mph    
Visibility 9 miles    
Events Rain    
Averages and records for this station are not official NWS values.
T = Trace of Precipitation, MM = Missing Value Source: NWS Daily Summary

Daily Weather History Graph

Daily Weather History Graph

Search for Another Location

Airport:

Trip Planner

Search our weather history database for the weather conditions in past years. The results will help you decide how hot, cold, wet, or windy it might be!

Date:

Astronomy

Sep. 20, 2013 Rise Set
Actual Time 7:03 AM CDT 7:21 PM CDT
Civil Twilight 6:31 AM CDT 7:53 PM CDT
Nautical Twilight 5:53 AM CDT 8:30 PM CDT
Astronomical Twilight 5:14 AM CDT 9:09 PM CDT
Moon 7:42 PM CDT (9/20) 8:30 AM CDT (9/20)
Length of Visible Light 13h 21m
Length of Day
12h 17m
Full, 98% of the Moon is Illuminated
Sep 20
Full
Sep 26
Last Quarter
Oct 4
New
Oct 11
First Quarter
Oct 18
Full

Hourly Weather History & Observations

Time (CDT) Temp. Dew Point Humidity Pressure Visibility Wind Dir Wind Speed Gust Speed Precip Events Conditions
12:13 AM 53.6 °F 50.0 °F 88% 29.78 in 10.0 mi NW 20.7 mph - N/A   Overcast
12:34 AM 53.6 °F 50.0 °F 88% 29.78 in 10.0 mi NW 20.7 mph 25.3 mph N/A   Overcast
12:53 AM 53.6 °F 50.0 °F 88% 29.79 in 10.0 mi NW 19.6 mph - N/A   Overcast
1:13 AM 53.6 °F 50.0 °F 88% 29.79 in 10.0 mi NW 18.4 mph - N/A   Overcast
1:34 AM 53.6 °F 50.0 °F 88% 29.80 in 10.0 mi WNW 17.3 mph - N/A   Overcast
1:53 AM 51.8 °F 48.2 °F 88% 29.81 in 10.0 mi NW 18.4 mph - N/A   Overcast
2:13 AM 51.8 °F 48.2 °F 88% 29.80 in 10.0 mi WNW 16.1 mph 24.2 mph N/A   Overcast
2:33 AM 51.8 °F 48.2 °F 88% 29.79 in 10.0 mi NW 20.7 mph 25.3 mph N/A   Overcast
2:53 AM 51.8 °F 48.2 °F 88% 29.79 in 10.0 mi NW 19.6 mph - N/A   Overcast
3:14 AM 51.8 °F 48.2 °F 88% 29.79 in 10.0 mi NW 17.3 mph - N/A   Overcast
3:33 AM 51.8 °F 48.2 °F 88% 29.80 in 10.0 mi NW 18.4 mph 23.0 mph N/A   Overcast
3:53 AM 51.8 °F 48.2 °F 88% 29.80 in 10.0 mi NW 18.4 mph 25.3 mph N/A   Overcast
4:14 AM 51.8 °F 48.2 °F 88% 29.80 in 10.0 mi NW 19.6 mph 25.3 mph N/A   Overcast
4:33 AM 51.8 °F 48.2 °F 88% 29.80 in 10.0 mi WNW 18.4 mph 24.2 mph N/A   Overcast
4:53 AM 50.0 °F 46.4 °F 87% 29.81 in 10.0 mi NW 18.4 mph - N/A   Overcast
5:14 AM 50.0 °F 46.4 °F 87% 29.80 in 10.0 mi NW 16.1 mph - N/A   Overcast
5:33 AM 48.2 °F 46.4 °F 93% 29.81 in 4.0 mi NW 17.3 mph - N/A Rain Heavy Rain
5:53 AM 48.2 °F 46.4 °F 93% 29.81 in 4.0 mi WNW 16.1 mph - N/A Rain Heavy Rain
6:14 AM 48.2 °F 46.4 °F 93% 29.81 in 5.0 mi NW 12.7 mph - N/A Rain Light Rain
6:33 AM 48.2 °F 46.4 °F 93% 29.82 in 7.0 mi NNW 20.7 mph - N/A   Overcast
6:53 AM 48.2 °F 46.4 °F 93% 29.82 in 10.0 mi WNW 15.0 mph - N/A   Overcast
7:13 AM 48.2 °F 46.4 °F 93% 29.82 in 10.0 mi NW 13.8 mph 18.4 mph N/A   Overcast
7:34 AM 48.2 °F 46.4 °F 93% 29.82 in 10.0 mi NW 15.0 mph 19.6 mph N/A   Overcast
7:53 AM 48.2 °F 46.4 °F 93% 29.82 in 10.0 mi NW 16.1 mph - N/A   Overcast
8:13 AM 48.2 °F 44.6 °F 87% 29.83 in 10.0 mi NW 17.3 mph - N/A   Mostly Cloudy
8:34 AM 48.2 °F 46.4 °F 93% 29.83 in 10.0 mi NNW 16.1 mph - N/A   Mostly Cloudy
8:53 AM 48.2 °F 46.4 °F 93% 29.83 in 10.0 mi NW 13.8 mph 18.4 mph N/A   Overcast
9:13 AM 48.2 °F 44.6 °F 87% 29.83 in 10.0 mi NW 13.8 mph - N/A   Overcast
9:34 AM 48.2 °F 46.4 °F 93% 29.83 in 7.0 mi WNW 12.7 mph - N/A   Overcast
9:53 AM 48.2 °F 44.6 °F 87% 29.84 in 10.0 mi WNW 13.8 mph - N/A   Overcast
10:13 AM 48.2 °F 44.6 °F 87% 29.84 in 4.0 mi WNW 13.8 mph - N/A   Overcast
10:34 AM 48.2 °F 44.6 °F 87% 29.84 in 10.0 mi WNW 15.0 mph - N/A   Overcast
10:53 AM 48.2 °F 44.6 °F 87% 29.84 in 10.0 mi WNW 15.0 mph - N/A   Overcast
11:13 AM 48.2 °F 44.6 °F 87% 29.85 in 10.0 mi WNW 17.3 mph 21.9 mph N/A   Overcast
11:34 AM 48.2 °F 46.4 °F 93% 29.85 in 10.0 mi WNW 16.1 mph - N/A   Overcast
11:53 AM 50.0 °F 44.6 °F 82% 29.84 in 10.0 mi WNW 17.3 mph - N/A   Overcast
12:13 PM 50.0 °F 44.6 °F 82% 29.84 in 10.0 mi West 17.3 mph - N/A   Overcast
12:34 PM 50.0 °F 44.6 °F 82% 29.84 in 10.0 mi WNW 17.3 mph - N/A   Overcast
12:53 PM 50.0 °F 44.6 °F 82% 29.84 in 10.0 mi WNW 18.4 mph 21.9 mph N/A   Overcast
1:13 PM 51.8 °F 46.4 °F 82% 29.84 in 10.0 mi WNW 17.3 mph - N/A   Overcast
1:34 PM 50.0 °F 46.4 °F 87% 29.83 in 10.0 mi WNW 20.7 mph - N/A   Overcast
1:53 PM 48.2 °F 46.4 °F 93% 29.84 in 7.0 mi WNW 19.6 mph - N/A   Overcast
2:13 PM 51.8 °F 44.6 °F 76% 29.84 in 10.0 mi NW 21.9 mph - N/A   Overcast
2:32 PM 50.0 °F 46.4 °F 87% 29.83 in 3.0 mi NW 18.4 mph - N/A Rain Rain
2:53 PM 51.8 °F 46.4 °F 82% 29.83 in 10.0 mi NW 23.0 mph 27.6 mph N/A   Mostly Cloudy
3:13 PM 51.8 °F 44.6 °F 76% 29.83 in 10.0 mi WNW 18.4 mph 25.3 mph N/A   Mostly Cloudy
3:33 PM 51.8 °F 44.6 °F 76% 29.83 in 10.0 mi NW 19.6 mph 26.5 mph N/A   Overcast
3:53 PM 51.8 °F 44.6 °F 76% 29.83 in 10.0 mi WNW 17.3 mph - N/A   Overcast
4:13 PM 51.8 °F 44.6 °F 76% 29.84 in 10.0 mi WNW 25.3 mph 28.8 mph N/A   Overcast
4:34 PM 51.8 °F 44.6 °F 76% 29.84 in 10.0 mi NW 19.6 mph 27.6 mph N/A   Mostly Cloudy
4:53 PM 53.6 °F 44.6 °F 72% 29.84 in 10.0 mi NW 17.3 mph - N/A   Mostly Cloudy
5:13 PM 51.8 °F 44.6 °F 76% 29.84 in 10.0 mi WNW 24.2 mph 27.6 mph N/A   Overcast
5:33 PM 51.8 °F 44.6 °F 76% 29.85 in 10.0 mi NW 26.5 mph 32.2 mph N/A   Overcast
5:53 PM 48.2 °F 44.6 °F 87% 29.85 in 10.0 mi WNW 18.4 mph 26.5 mph N/A   Overcast
6:13 PM 48.2 °F 44.6 °F 87% 29.85 in 5.0 mi NW 17.3 mph 28.8 mph N/A   Overcast
6:33 PM 48.2 °F 44.6 °F 87% 29.86 in 10.0 mi NW 20.7 mph 26.5 mph N/A   Overcast
6:53 PM 48.2 °F 44.6 °F 87% 29.87 in 10.0 mi NW 19.6 mph 25.3 mph N/A   Overcast
7:13 PM 48.2 °F 44.6 °F 87% 29.86 in 10.0 mi NW 20.7 mph 25.3 mph N/A   Overcast
7:33 PM 48.2 °F 44.6 °F 87% 29.87 in 10.0 mi NW 18.4 mph - N/A   Scattered Clouds
7:53 PM 48.2 °F 44.6 °F 87% 29.88 in 10.0 mi WNW 18.4 mph - N/A   Mostly Cloudy
8:13 PM 48.2 °F 44.6 °F 87% 29.88 in 10.0 mi NW 15.0 mph 23.0 mph N/A   Overcast
8:33 PM 50.0 °F 42.8 °F 76% 29.89 in 10.0 mi NW 16.1 mph 24.2 mph N/A   Overcast
8:53 PM 48.2 °F 41.0 °F 76% 29.89 in 10.0 mi NW 18.4 mph 24.2 mph N/A   Overcast
9:13 PM 48.2 °F 42.8 °F 82% 29.90 in 10.0 mi NW 21.9 mph 27.6 mph N/A   Mostly Cloudy
9:33 PM 48.2 °F 39.2 °F 71% 29.90 in 10.0 mi NNW 24.2 mph - N/A   Scattered Clouds
9:53 PM 48.2 °F 39.2 °F 71% 29.91 in 10.0 mi NNW 23.0 mph 29.9 mph N/A   Scattered Clouds
10:13 PM 48.2 °F 39.2 °F 71% 29.91 in 10.0 mi NW 19.6 mph - N/A   Scattered Clouds
10:33 PM 48.2 °F 41.0 °F 76% 29.91 in 10.0 mi NNW 16.1 mph 21.9 mph N/A   Scattered Clouds
10:53 PM 48.2 °F 41.0 °F 76% 29.91 in 10.0 mi NW 17.3 mph - N/A   Scattered Clouds
11:13 PM 48.2 °F 41.0 °F 76% 29.91 in 10.0 mi NW 16.1 mph - N/A   Mostly Cloudy
11:33 PM 48.2 °F 39.2 °F 71% 29.91 in 10.0 mi NW 16.1 mph - N/A   Overcast
11:53 PM 48.2 °F 39.2 °F 71% 29.91 in 10.0 mi NNW 15.0 mph - N/A   Overcast